Aeroporto :
LOGIN :

Iscrizione | Disclaimer

   EN    FR    IT 

 










Sommario :    VFR   VFR Marginale   IFR   IFR Intensivo   IFR Molto Intensivo
Visibilità : 
Base nubi : 
>= 8 km
>= 3000ft
5 / 8 km
1000 / 3000 ft
1500m / 5 km
500 / 1000 ft
800 / 1500m
200 / 500 ft
< 800m
< 200 ft
Simboli :   Temporali  Nebbia  Neve Forte  Precipitazioni Forti  Vento > 20 kt
SIGMETs :   Varie  Temporali  Ghiacco  Turbolenza  Onda orograficha  Ceneri Vulcaniche






- Altitudine del aeroporto : 157 ft
- Codice IATA : SXF


EDDB - Berlin Schönefeld

ULTIMO METAR :
  • 090650Z 08006KT 4600 -SN BR BKN009 M02/M03 Q1005 NOSIG

METARs OBSOLETI :
  • 090620Z 10008KT 5000 -SN BKN009 M01/M03 Q1006 TEMPO 4000 -SN
  • 090550Z 10008KT 5000 -SN BKN009 M02/M03 Q1005 TEMPO 4000 -SN
  • 090520Z 11007KT 9000 BKN009 M02/M04 Q1006 TEMPO 4000 -SN
  • 090450Z 11007KT 8000 -SN BKN009 M02/M04 Q1005 TEMPO 4000 -SN
  • 090420Z 09009KT 9999 BKN009 M02/M04 Q1005 TEMPO 4000 -SN

TAF TAF EDDB
Valido dal 09 a 06 ore il 10 a 06 ore UTC


090500Z 0906/1006 09008KT 9999 BKN010
TEMPO 0906/0918 2500 -SN BKN005
BECMG 0913/0916 16003KT
TEMPO 0918/1002 2500 BR BKN003
TEMPO 1002/1006 0800 FZFG OVC001



MetMap, La meteo Aeronautica in un colpo d'occhio ! - Copyright ORBIFLY Dicembre 2007 - Disclaimer

ORBIFLY MET'MAP TEAM :

Programmazione e sviluppo : Alexandra Zaïnal
Concezione : Baudouin d'Aumeries
Aiuto per la programmazione : Marc-Olivier Méhu
Supporto tecnico e logistico : Manuel Goepfert
Aiuto per la traduzione : Arnaldo La Scala

Contatto : metmap@orbifly.com




FONTI E CREDITI :

   NOAA